Station Historical Data
Daily Summary for February 13, 2018 Units:  English    Metric   Both
« Previous Day
Next Day »
Daily Weekly Monthly Yearly Custom
  High: Low: Average:
Temperature: 32.8 °F 9.0 °F 21.1 °F
Dew Point: 19.0 °F 5.1 °F 13.1 °F
Humidity: 85% 49% 72%
Wind Speed: 7.0mph 0.0mph 1.3mph
Wind Gust: 11.0mph - -
Wind- - East
Pressure: 30.87 in 30.33 in -
Precipitation: 0.00 in    
Historical Graphs
 
 
Tabular Data for February 13, 2018
Time Temperature Dew Point Pressure Wind Wind Speed Wind Gust Humidity Rainfall Rate (Hourly)
00:04 13.5 °F 7.9 °F 30.82 in WSW 1.0 mph 3.0 mph 78% 0.00 in
00:09 13.5 °F 8.2 °F 30.83 in WSW 1.0 mph 3.0 mph 79% 0.00 in
00:14 13.5 °F 8.2 °F 30.83 in Calm     79% 0.00 in
00:19 13.4 °F 8.1 °F 30.83 in WSW 2.0 mph 3.0 mph 79% 0.00 in
00:24 13.4 °F 8.4 °F 30.83 in WSW 1.0 mph 4.0 mph 80% 0.00 in
00:29 13.5 °F 8.5 °F 30.83 in Calm   3.0 mph 80% 0.00 in
00:34 13.5 °F 8.5 °F 30.83 in Calm     80% 0.00 in
00:39 13.4 °F 8.4 °F 30.84 in WSW 1.0 mph 3.0 mph 80% 0.00 in
00:44 13.3 °F 8.3 °F 30.84 in WSW 2.0 mph 4.0 mph 80% 0.00 in
00:49 13.2 °F 8.2 °F 30.84 in Calm   2.0 mph 80% 0.00 in
00:54 13.0 °F 8.0 °F 30.84 in Calm   2.0 mph 80% 0.00 in
00:59 12.9 °F 7.9 °F 30.84 in Calm   3.0 mph 80% 0.00 in
01:04 13.0 °F 8.0 °F 30.84 in WSW 1.0 mph 3.0 mph 80% 0.00 in
01:09 12.8 °F 7.8 °F 30.84 in Calm   3.0 mph 80% 0.00 in
01:14 12.8 °F 7.8 °F 30.84 in Calm   3.0 mph 80% 0.00 in
01:19 12.7 °F 7.7 °F 30.84 in Calm     80% 0.00 in
01:24 12.7 °F 7.7 °F 30.84 in Calm     80% 0.00 in
01:29 12.6 °F 7.6 °F 30.85 in Calm   1.0 mph 80% 0.00 in
01:34 12.4 °F 7.4 °F 30.85 in Calm   2.0 mph 80% 0.00 in
01:39 12.3 °F 7.6 °F 30.85 in Calm   2.0 mph 81% 0.00 in
01:44 12.3 °F 7.6 °F 30.84 in WSW 1.0 mph 3.0 mph 81% 0.00 in
01:49 12.0 °F 7.0 °F 30.84 in Calm   2.0 mph 80% 0.00 in
01:54 11.7 °F 7.0 °F 30.85 in Calm     81% 0.00 in
01:59 11.8 °F 7.1 °F 30.85 in Calm     81% 0.00 in
02:04 11.8 °F 7.1 °F 30.85 in Calm     81% 0.00 in
02:09 11.7 °F 7.0 °F 30.84 in Calm     81% 0.00 in
02:14 11.7 °F 7.3 °F 30.85 in Calm     82% 0.00 in
02:19 11.8 °F 7.4 °F 30.85 in Calm   2.0 mph 82% 0.00 in
02:24 11.9 °F 7.5 °F 30.85 in Calm     82% 0.00 in
02:29 11.9 °F 7.5 °F 30.85 in Calm   4.0 mph 82% 0.00 in
02:34 12.1 °F 7.7 °F 30.85 in Calm   4.0 mph 82% 0.00 in
02:39 12.2 °F 7.8 °F 30.85 in Calm   2.0 mph 82% 0.00 in
02:44 12.0 °F 7.6 °F 30.84 in Calm   2.0 mph 82% 0.00 in
02:49 11.8 °F 7.4 °F 30.84 in Calm     82% 0.00 in
02:54 11.6 °F 7.2 °F 30.84 in Calm     82% 0.00 in
02:59 11.3 °F 6.9 °F 30.84 in Calm     82% 0.00 in
03:04 11.1 °F 6.7 °F 30.84 in Calm     82% 0.00 in
03:09 11.0 °F 6.6 °F 30.84 in Calm     82% 0.00 in
03:14 11.0 °F 6.6 °F 30.84 in Calm     82% 0.00 in
03:19 10.8 °F 6.4 °F 30.85 in Calm     82% 0.00 in
03:24 10.6 °F 6.5 °F 30.85 in Calm     83% 0.00 in
03:29 10.4 °F 6.3 °F 30.85 in Calm     83% 0.00 in
03:34 10.3 °F 6.2 °F 30.85 in Calm     83% 0.00 in
03:40 10.3 °F 6.2 °F 30.85 in Calm     83% 0.00 in
03:45 10.3 °F 6.2 °F 30.85 in Calm     83% 0.00 in
03:50 10.4 °F 6.5 °F 30.85 in Calm     84% 0.00 in
03:59 10.3 °F 6.4 °F 30.85 in Calm     84% 0.00 in
04:04 10.4 °F 6.5 °F 30.85 in Calm     84% 0.00 in
04:09 10.3 °F 6.4 °F 30.85 in Calm     84% 0.00 in
04:14 10.4 °F 6.5 °F 30.85 in Calm     84% 0.00 in
04:19 10.4 °F 6.5 °F 30.85 in Calm     84% 0.00 in
04:24 10.3 °F 6.4 °F 30.85 in Calm   2.0 mph 84% 0.00 in
04:29 10.5 °F 6.9 °F 30.85 in Calm   2.0 mph 85% 0.00 in
04:34 10.7 °F 7.1 °F 30.85 in Calm     85% 0.00 in
04:39 10.7 °F 7.1 °F 30.85 in Calm     85% 0.00 in
04:44 10.8 °F 7.2 °F 30.85 in Calm     85% 0.00 in
04:49 10.8 °F 7.2 °F 30.85 in Calm     85% 0.00 in
04:54 10.9 °F 7.3 °F 30.85 in Calm     85% 0.00 in
04:59 10.9 °F 7.3 °F 30.85 in Calm     85% 0.00 in
05:04 10.8 °F 6.9 °F 30.85 in Calm     84% 0.00 in
05:09 10.8 °F 7.2 °F 30.85 in Calm     85% 0.00 in
05:14 10.7 °F 7.1 °F 30.85 in Calm     85% 0.00 in
05:19 10.7 °F 6.8 °F 30.85 in Calm   1.0 mph 84% 0.00 in
05:24 10.8 °F 7.2 °F 30.85 in Calm   2.0 mph 85% 0.00 in
05:29 10.7 °F 7.1 °F 30.85 in Calm   2.0 mph 85% 0.00 in
05:34 10.6 °F 7.0 °F 30.84 in Calm   3.0 mph 85% 0.00 in
05:39 10.5 °F 6.9 °F 30.84 in WSW 1.0 mph 3.0 mph 85% 0.00 in
05:44 10.5 °F 6.6 °F 30.84 in WSW 1.0 mph 3.0 mph 84% 0.00 in
05:49 10.4 °F 6.5 °F 30.84 in Calm   2.0 mph 84% 0.00 in
05:54 10.3 °F 6.4 °F 30.84 in Calm   2.0 mph 84% 0.00 in
05:59 10.2 °F 6.3 °F 30.84 in Calm   1.0 mph 84% 0.00 in
06:04 10.1 °F 6.2 °F 30.84 in Calm   1.0 mph 84% 0.00 in
06:09 10.1 °F 6.5 °F 30.84 in Calm   1.0 mph 85% 0.00 in
06:14 10.0 °F 6.1 °F 30.84 in Calm     84% 0.00 in
06:19 10.0 °F 6.4 °F 30.84 in Calm     85% 0.00 in
06:24 9.8 °F 5.9 °F 30.84 in Calm     84% 0.00 in
06:29 9.8 °F 5.9 °F 30.84 in Calm     84% 0.00 in
06:34 9.7 °F 6.1 °F 30.84 in Calm   2.0 mph 85% 0.00 in
06:39 9.8 °F 6.2 °F 30.84 in Calm   2.0 mph 85% 0.00 in
06:44 9.8 °F 6.2 °F 30.85 in Calm   2.0 mph 85% 0.00 in
06:49 9.7 °F 5.8 °F 30.85 in Calm     84% 0.00 in
06:54 9.5 °F 5.6 °F 30.85 in Calm     84% 0.00 in
06:59 9.4 °F 5.5 °F 30.85 in Calm     84% 0.00 in
07:04 9.6 °F 6.0 °F 30.85 in Calm     85% 0.00 in
07:09 9.6 °F 6.0 °F 30.85 in Calm     85% 0.00 in
07:14 9.6 °F 6.0 °F 30.86 in Calm     85% 0.00 in
07:19 9.5 °F 5.9 °F 30.86 in Calm     85% 0.00 in
07:24 9.4 °F 5.5 °F 30.86 in Calm     84% 0.00 in
07:29 9.1 °F 5.2 °F 30.86 in Calm     84% 0.00 in
07:34 9.0 °F 5.1 °F 30.86 in Calm     84% 0.00 in
07:39 9.2 °F 5.6 °F 30.86 in Calm     85% 0.00 in
07:44 9.9 °F 6.3 °F 30.86 in Calm     85% 0.00 in
07:49 10.3 °F 6.7 °F 30.87 in Calm   2.0 mph 85% 0.00 in
07:54 10.7 °F 7.1 °F 30.86 in Calm   2.0 mph 85% 0.00 in
07:59 11.1 °F 7.2 °F 30.86 in Calm   2.0 mph 84% 0.00 in
08:04 11.4 °F 7.5 °F 30.86 in Calm   2.0 mph 84% 0.00 in
08:09 11.8 °F 7.9 °F 30.86 in Calm   3.0 mph 84% 0.00 in
08:14 12.2 °F 8.3 °F 30.86 in Calm   3.0 mph 84% 0.00 in
08:19 12.6 °F 8.4 °F 30.86 in Calm   2.0 mph 83% 0.00 in
08:24 13.0 °F 8.8 °F 30.86 in Calm   1.0 mph 83% 0.00 in
08:29 13.6 °F 9.1 °F 30.86 in WSW 1.0 mph 3.0 mph 82% 0.00 in
08:34 14.0 °F 9.5 °F 30.86 in WSW 1.0 mph 2.0 mph 82% 0.00 in
08:39 14.5 °F 9.7 °F 30.86 in WSW 2.0 mph 3.0 mph 81% 0.00 in
08:44 14.9 °F 10.1 °F 30.85 in SW 2.0 mph 3.0 mph 81% 0.00 in
08:49 15.2 °F 10.1 °F 30.86 in SW 1.0 mph 3.0 mph 80% 0.00 in
08:54 15.8 °F 10.4 °F 30.86 in SSW 1.0 mph 4.0 mph 79% 0.00 in
08:59 16.2 °F 10.5 °F 30.86 in SSW 1.0 mph 4.0 mph 78% 0.00 in
09:04 16.7 °F 11.0 °F 30.86 in SSW 1.0 mph 3.0 mph 78% 0.00 in
09:09 17.0 °F 11.0 °F 30.85 in SSW 1.0 mph 3.0 mph 77% 0.00 in
09:14 17.2 °F 10.9 °F 30.86 in South 1.0 mph 4.0 mph 76% 0.00 in
09:19 17.4 °F 11.1 °F 30.85 in South 1.0 mph 4.0 mph 76% 0.00 in
09:24 17.8 °F 11.2 °F 30.85 in Calm   4.0 mph 75% 0.00 in
09:29 18.1 °F 11.5 °F 30.85 in South 1.0 mph 4.0 mph 75% 0.00 in
09:34 18.5 °F 11.6 °F 30.85 in South 1.0 mph 4.0 mph 74% 0.00 in
09:39 19.1 °F 11.9 °F 30.84 in South 1.0 mph 4.0 mph 73% 0.00 in
09:44 20.0 °F 12.4 °F 30.84 in ESE 2.0 mph 5.0 mph 72% 0.00 in
09:49 20.2 °F 12.3 °F 30.84 in ESE 2.0 mph 5.0 mph 71% 0.00 in
09:54 20.3 °F 12.1 °F 30.83 in ESE 3.0 mph 7.0 mph 70% 0.00 in
09:59 20.6 °F 12.4 °F 30.83 in SE 2.0 mph 7.0 mph 70% 0.00 in
10:04 20.8 °F 12.6 °F 30.83 in SE 3.0 mph 7.0 mph 70% 0.00 in
10:09 21.3 °F 13.0 °F 30.83 in ESE 2.0 mph 6.0 mph 70% 0.00 in
10:14 22.1 °F 13.5 °F 30.83 in ESE 1.0 mph 5.0 mph 69% 0.00 in
10:19 22.3 °F 13.3 °F 30.82 in SE 2.0 mph 5.0 mph 68% 0.00 in
10:24 22.6 °F 13.3 °F 30.82 in ESE 4.0 mph 8.0 mph 67% 0.00 in
10:29 22.7 °F 13.0 °F 30.82 in SE 7.0 mph 9.0 mph 66% 0.00 in
10:34 23.0 °F 13.3 °F 30.81 in SE 5.0 mph 7.0 mph 66% 0.00 in
10:39 23.5 °F 13.8 °F 30.81 in SE 3.0 mph 9.0 mph 66% 0.00 in
10:44 23.8 °F 13.7 °F 30.81 in SE 4.0 mph 8.0 mph 65% 0.00 in
10:49 23.9 °F 13.5 °F 30.81 in SE 3.0 mph 7.0 mph 64% 0.00 in
10:54 23.8 °F 13.7 °F 30.81 in SE 3.0 mph 7.0 mph 65% 0.00 in
10:59 23.7 °F 13.3 °F 30.81 in SSE 4.0 mph 7.0 mph 64% 0.00 in
11:04 23.8 °F 13.4 °F 30.81 in SSE 2.0 mph 7.0 mph 64% 0.00 in
11:09 24.3 °F 13.9 °F 30.80 in SE 4.0 mph 7.0 mph 64% 0.00 in
11:14 24.6 °F 13.8 °F 30.80 in ESE 3.0 mph 8.0 mph 63% 0.00 in
11:19 24.7 °F 13.9 °F 30.79 in ESE 3.0 mph 8.0 mph 63% 0.00 in
11:24 25.0 °F 14.2 °F 30.79 in SSE 4.0 mph 6.0 mph 63% 0.00 in
11:29 25.0 °F 14.2 °F 30.78 in East 2.0 mph 5.0 mph 63% 0.00 in
11:34 25.4 °F 14.2 °F 30.78 in ESE 2.0 mph 7.0 mph 62% 0.00 in
11:39 25.8 °F 14.2 °F 30.78 in ESE 7.0 mph 8.0 mph 61% 0.00 in
11:44 26.5 °F 15.2 °F 30.77 in East 5.0 mph 7.0 mph 62% 0.00 in
11:49 26.9 °F 14.9 °F 30.77 in ESE 4.0 mph 8.0 mph 60% 0.00 in
11:54 26.6 °F 14.6 °F 30.76 in ESE 4.0 mph 8.0 mph 60% 0.00 in
11:59 27.1 °F 15.0 °F 30.76 in SE 3.0 mph 8.0 mph 60% 0.00 in
12:04 27.4 °F 15.3 °F 30.76 in ESE 2.0 mph 6.0 mph 60% 0.00 in
12:09 27.4 °F 14.9 °F 30.75 in East 3.0 mph 8.0 mph 59% 0.00 in
12:14 27.9 °F 15.4 °F 30.75 in ESE 3.0 mph 8.0 mph 59% 0.00 in
12:19 28.2 °F 15.3 °F 30.75 in East 2.0 mph 8.0 mph 58% 0.00 in
12:24 28.5 °F 15.6 °F 30.74 in ESE 3.0 mph 6.0 mph 58% 0.00 in
12:29 28.5 °F 15.6 °F 30.74 in East 2.0 mph 6.0 mph 58% 0.00 in
12:34 28.7 °F 15.4 °F 30.73 in Calm   5.0 mph 57% 0.00 in
12:39 28.7 °F 15.4 °F 30.73 in ENE 2.0 mph 9.0 mph 57% 0.00 in
12:44 28.9 °F 16.0 °F 30.72 in SSW 5.0 mph 6.0 mph 58% 0.00 in
12:49 29.5 °F 16.1 °F 30.72 in ESE 2.0 mph 5.0 mph 57% 0.00 in
12:54 29.4 °F 16.0 °F 30.71 in ENE 4.0 mph 6.0 mph 57% 0.00 in
12:59 29.0 °F 15.2 °F 30.71 in East 3.0 mph 8.0 mph 56% 0.00 in
13:04 29.3 °F 16.3 °F 30.70 in ENE 3.0 mph 8.0 mph 58% 0.00 in
13:09 30.0 °F 16.2 °F 30.70 in East 3.0 mph 7.0 mph 56% 0.00 in
13:14 30.5 °F 16.7 °F 30.69 in ESE 3.0 mph 7.0 mph 56% 0.00 in
13:19 31.1 °F 16.4 °F 30.70 in SE 2.0 mph 8.0 mph 54% 0.01 in
13:24 30.8 °F 16.1 °F 30.69 in NE 3.0 mph 7.0 mph 54% 0.01 in
13:29 30.9 °F 16.2 °F 30.69 in East 7.0 mph 10.0 mph 54% 0.01 in
13:34 31.1 °F 15.9 °F 30.68 in East 3.0 mph 10.0 mph 53% 0.01 in
13:39 31.5 °F 16.3 °F 30.68 in ESE 3.0 mph 8.0 mph 53% 0.01 in
13:44 31.9 °F 15.8 °F 30.68 in East 3.0 mph 7.0 mph 51% 0.01 in
13:49 32.0 °F 15.9 °F 30.68 in ESE 3.0 mph 7.0 mph 51% 0.01 in
13:54 31.7 °F 15.2 °F 30.67 in Calm   6.0 mph 50% 0.01 in
13:59 32.2 °F 16.5 °F 30.66 in ESE 2.0 mph 4.0 mph 52% 0.01 in
14:04 31.9 °F 15.8 °F 30.66 in NE 2.0 mph 7.0 mph 51% 0.01 in
14:09 32.3 °F 16.2 °F 30.65 in ENE 3.0 mph 7.0 mph 51% 0.01 in
14:14 32.8 °F 15.7 °F 30.65 in East 2.0 mph 6.0 mph 49% 0.01 in
14:19 32.1 °F 16.0 °F 30.65 in East 2.0 mph 5.0 mph 51% 0.00 in
14:24 32.1 °F 15.5 °F 30.65 in ENE 2.0 mph 5.0 mph 50% 0.00 in
14:29 32.6 °F 16.0 °F 30.65 in NE 2.0 mph 4.0 mph 50% 0.00 in
14:34 32.5 °F 16.4 °F 30.65 in NE 2.0 mph 5.0 mph 51% 0.00 in
14:39 32.2 °F 15.6 °F 30.64 in NE 1.0 mph 6.0 mph 50% 0.00 in
14:44 32.1 °F 16.0 °F 30.63 in NE 3.0 mph 7.0 mph 51% 0.00 in
14:49 32.0 °F 15.9 °F 30.63 in NE 2.0 mph 5.0 mph 51% 0.00 in
14:59 31.8 °F 16.2 °F 30.62 in NNE 3.0 mph 7.0 mph 52% 0.00 in
15:04 31.9 °F 16.2 °F 30.62 in NE 2.0 mph 6.0 mph 52% 0.00 in
15:09 32.2 °F 16.5 °F 30.61 in ENE 5.0 mph 7.0 mph 52% 0.00 in
15:14 32.0 °F 16.3 °F 30.61 in NE 3.0 mph 7.0 mph 52% 0.00 in
15:19 31.8 °F 16.6 °F 30.60 in NE 2.0 mph 8.0 mph 53% 0.00 in
15:24 31.7 °F 16.9 °F 30.60 in NE 4.0 mph 8.0 mph 54% 0.00 in
15:29 31.5 °F 17.6 °F 30.60 in NNE 3.0 mph 6.0 mph 56% 0.00 in
15:34 31.4 °F 17.1 °F 30.59 in NNE 4.0 mph 9.0 mph 55% 0.00 in
15:39 31.1 °F 17.6 °F 30.59 in NNE 4.0 mph 9.0 mph 57% 0.00 in
15:44 30.9 °F 17.0 °F 30.59 in NE 2.0 mph 6.0 mph 56% 0.00 in
15:49 30.8 °F 17.3 °F 30.59 in Calm   6.0 mph 57% 0.00 in
15:54 30.9 °F 17.4 °F 30.59 in NE 3.0 mph 6.0 mph 57% 0.00 in
16:00 30.7 °F 17.3 °F 30.58 in NE 4.0 mph 7.0 mph 57% 0.00 in
16:04 30.7 °F 17.7 °F 30.58 in NE 2.0 mph 6.0 mph 58% 0.00 in
16:09 30.9 °F 17.8 °F 30.58 in ENE 3.0 mph 9.0 mph 58% 0.00 in
16:19 30.4 °F 17.8 °F 30.57 in NE 5.0 mph 11.0 mph 59% 0.00 in
16:24 30.3 °F 18.1 °F 30.56 in NE 4.0 mph 7.0 mph 60% 0.00 in
16:29 30.3 °F 18.1 °F 30.56 in NE 4.0 mph 8.0 mph 60% 0.00 in
16:34 30.1 °F 18.3 °F 30.56 in NE 4.0 mph 9.0 mph 61% 0.00 in
16:39 30.0 °F 18.2 °F 30.56 in NE 4.0 mph 9.0 mph 61% 0.00 in
16:44 29.8 °F 18.0 °F 30.56 in NE 4.0 mph 9.0 mph 61% 0.00 in
16:49 29.8 °F 18.4 °F 30.56 in NNE 5.0 mph 6.0 mph 62% 0.00 in
16:54 29.6 °F 18.2 °F 30.56 in NE 6.0 mph 7.0 mph 62% 0.00 in
16:59 29.5 °F 18.4 °F 30.55 in ENE 3.0 mph 7.0 mph 63% 0.00 in
17:04 29.4 °F 18.3 °F 30.55 in NE 4.0 mph 7.0 mph 63% 0.00 in
17:09 29.4 °F 18.7 °F 30.54 in NE 3.0 mph 7.0 mph 64% 0.00 in
17:14 29.3 °F 18.3 °F 30.54 in NE 3.0 mph 6.0 mph 63% 0.00 in
17:19 29.2 °F 18.5 °F 30.53 in NE 4.0 mph 8.0 mph 64% 0.00 in
17:24 29.1 °F 18.4 °F 30.53 in NE 1.0 mph 7.0 mph 64% 0.00 in
17:29 28.9 °F 18.2 °F 30.52 in NE 3.0 mph 9.0 mph 64% 0.00 in
17:34 28.8 °F 18.5 °F 30.53 in NE 2.0 mph 7.0 mph 65% 0.00 in
17:39 28.7 °F 18.4 °F 30.53 in NE 3.0 mph 7.0 mph 65% 0.00 in
17:44 28.6 °F 18.3 °F 30.54 in NE 3.0 mph 5.0 mph 65% 0.00 in
17:49 28.6 °F 18.7 °F 30.53 in NNE 2.0 mph 6.0 mph 66% 0.00 in
17:54 28.6 °F 18.7 °F 30.53 in NNE 1.0 mph 4.0 mph 66% 0.00 in
17:59 28.5 °F 18.6 °F 30.53 in NNE 4.0 mph 5.0 mph 66% 0.00 in
18:04 28.5 °F 18.9 °F 30.52 in NNE 4.0 mph 4.0 mph 67% 0.00 in
18:09 28.4 °F 18.8 °F 30.52 in NNE 1.0 mph 4.0 mph 67% 0.00 in
18:14 28.4 °F 18.8 °F 30.52 in NNE 2.0 mph 4.0 mph 67% 0.00 in
18:19 28.3 °F 18.7 °F 30.52 in NNE 2.0 mph 4.0 mph 67% 0.00 in
18:24 28.3 °F 18.7 °F 30.52 in NNE 2.0 mph 4.0 mph 67% 0.00 in
18:29 28.2 °F 18.6 °F 30.52 in NNE 2.0 mph 4.0 mph 67% 0.00 in
18:34 28.2 °F 18.6 °F 30.51 in NNE 2.0 mph 5.0 mph 67% 0.00 in
18:39 28.0 °F 18.5 °F 30.52 in NNE 3.0 mph 5.0 mph 67% 0.00 in
18:44 27.9 °F 18.7 °F 30.52 in NNE 1.0 mph 4.0 mph 68% 0.00 in
18:49 27.8 °F 18.6 °F 30.51 in Calm   3.0 mph 68% 0.00 in
18:54 27.8 °F 18.6 °F 30.50 in NNE 2.0 mph 3.0 mph 68% 0.00 in
18:59 27.8 °F 18.6 °F 30.50 in NNE 1.0 mph 4.0 mph 68% 0.00 in
19:04 27.8 °F 18.6 °F 30.50 in NNE 4.0 mph 5.0 mph 68% 0.00 in
19:09 27.8 °F 18.6 °F 30.49 in NNE 2.0 mph 3.0 mph 68% 0.00 in
19:14 27.7 °F 18.8 °F 30.49 in NNE 1.0 mph 5.0 mph 69% 0.00 in
19:19 27.8 °F 18.9 °F 30.49 in NNE 2.0 mph 5.0 mph 69% 0.00 in
19:24 27.7 °F 18.8 °F 30.49 in NE 2.0 mph 4.0 mph 69% 0.00 in
19:29 27.7 °F 18.8 °F 30.49 in NE 2.0 mph 5.0 mph 69% 0.00 in
19:34 27.6 °F 18.8 °F 30.48 in NE 2.0 mph 5.0 mph 69% 0.00 in
19:39 27.4 °F 18.6 °F 30.48 in NE 1.0 mph 4.0 mph 69% 0.00 in
19:44 27.4 °F 18.6 °F 30.48 in NE 1.0 mph 4.0 mph 69% 0.00 in
19:49 27.4 °F 18.6 °F 30.48 in NE 3.0 mph 3.0 mph 69% 0.00 in
19:54 27.4 °F 18.6 °F 30.47 in NE 1.0 mph 3.0 mph 69% 0.00 in
19:59 27.4 °F 18.9 °F 30.47 in Calm   2.0 mph 70% 0.00 in
20:04 27.4 °F 18.9 °F 30.46 in Calm   1.0 mph 70% 0.00 in
20:09 27.4 °F 18.9 °F 30.45 in NE 2.0 mph 2.0 mph 70% 0.00 in
20:14 27.4 °F 18.9 °F 30.45 in Calm   2.0 mph 70% 0.00 in
20:19 27.5 °F 19.0 °F 30.45 in Calm     70% 0.00 in
20:24 27.5 °F 19.0 °F 30.44 in Calm     70% 0.00 in
20:29 27.2 °F 18.7 °F 30.44 in Calm     70% 0.00 in
20:34 27.0 °F 18.5 °F 30.44 in Calm     70% 0.00 in
20:39 26.7 °F 18.6 °F 30.44 in Calm     71% 0.00 in
20:44 26.5 °F 18.4 °F 30.44 in Calm   1.0 mph 71% 0.00 in
20:49 26.3 °F 18.2 °F 30.43 in Calm   1.0 mph 71% 0.00 in
20:54 26.3 °F 18.2 °F 30.43 in Calm     71% 0.00 in
20:59 26.4 °F 18.6 °F 30.42 in Calm     72% 0.00 in
21:04 26.7 °F 18.9 °F 30.42 in Calm   2.0 mph 72% 0.00 in
21:09 26.9 °F 18.7 °F 30.42 in Calm   2.0 mph 71% 0.00 in
21:14 26.8 °F 18.7 °F 30.41 in Calm   1.0 mph 71% 0.00 in
21:19 26.6 °F 18.5 °F 30.41 in Calm     71% 0.00 in
21:24 26.3 °F 18.2 °F 30.41 in Calm     71% 0.00 in
21:29 25.8 °F 17.7 °F 30.41 in Calm     71% 0.00 in
21:34 25.4 °F 17.9 °F 30.41 in Calm     73% 0.00 in
21:39 25.2 °F 17.8 °F 30.41 in Calm     73% 0.00 in
21:44 24.9 °F 17.5 °F 30.40 in Calm     73% 0.00 in
21:49 24.6 °F 17.2 °F 30.40 in Calm     73% 0.00 in
21:54 24.2 °F 17.1 °F 30.40 in Calm     74% 0.00 in
21:59 24.2 °F 17.4 °F 30.39 in Calm     75% 0.00 in
22:04 23.9 °F 17.4 °F 30.39 in Calm     76% 0.00 in
22:09 23.4 °F 16.9 °F 30.39 in Calm     76% 0.00 in
22:14 23.0 °F 16.9 °F 30.39 in Calm     77% 0.00 in
22:19 22.7 °F 16.6 °F 30.38 in Calm     77% 0.00 in
22:24 22.9 °F 17.1 °F 30.38 in Calm     78% 0.00 in
22:29 23.3 °F 17.5 °F 30.38 in Calm     78% 0.00 in
22:34 23.6 °F 17.7 °F 30.37 in Calm     78% 0.00 in
22:39 24.0 °F 18.1 °F 30.37 in Calm     78% 0.00 in
22:44 24.2 °F 18.3 °F 30.37 in Calm     78% 0.00 in
22:49 24.3 °F 18.4 °F 30.37 in Calm     78% 0.00 in
22:54 24.5 °F 18.6 °F 30.36 in Calm     78% 0.00 in
22:59 24.4 °F 18.5 °F 30.36 in Calm     78% 0.00 in
23:04 24.3 °F 18.4 °F 30.36 in Calm     78% 0.00 in
23:09 24.2 °F 18.3 °F 30.36 in Calm     78% 0.00 in
23:14 24.1 °F 18.5 °F 30.36 in Calm     79% 0.00 in
23:19 23.8 °F 18.2 °F 30.35 in Calm     79% 0.00 in
23:24 23.7 °F 18.1 °F 30.35 in Calm     79% 0.00 in
23:29 23.5 °F 17.9 °F 30.35 in Calm     79% 0.00 in
23:34 23.2 °F 17.7 °F 30.34 in Calm     79% 0.00 in
23:39 23.2 °F 17.9 °F 30.34 in Calm     80% 0.00 in
23:44 23.2 °F 17.9 °F 30.34 in Calm     80% 0.00 in
23:49 23.2 °F 17.9 °F 30.34 in Calm     80% 0.00 in
23:54 23.4 °F 18.1 °F 30.34 in Calm     80% 0.00 in
23:59 23.6 °F 18.3 °F 30.33 in Calm     80% 0.00 in
Buffalo, New York, USA
Compliments of Weather Underground - 2.5 mb